Home > Products > Valid Products > TAF

000
FTUS44 KLIX 301100
TAFMSY
TAF
KMSY 301120Z 3012/3112 02011KT P6SM SCT250
     FM302100 03007KT P6SM SCT250=



000
FTUS44 KLIX 301100
TAFBTR
TAF
KBTR 301120Z 3012/3112 02006KT P6SM SCT250
     FM310000 00000KT P6SM SCT250=



000
FTUS44 KLIX 301100
TAFNEW
TAF
KNEW 301120Z 3012/3112 02014KT P6SM SCT250
     FM302200 03008KT P6SM SCT250
     FM310700 05012KT P6SM SCT250=



000
FTUS44 KLIX 301100
TAFMCB
TAF
KMCB 301120Z 3012/3112 01005KT P6SM BKN250=



000
FTUS44 KLIX 301100
TAFGPT
TAF
KGPT 301120Z 3012/3112 02013KT P6SM SCT250
     FM302100 02009KT P6SM SCT250
     FM311100 06009KT P6SM SCT250=



000
FTUS44 KLIX 301100
TAFNEW
TAF
KNEW 301120Z 3012/3112 02014KT P6SM SCT250
     FM302200 03008KT P6SM SCT250
     FM310700 05012KT P6SM SCT250=



000
FTUS44 KLIX 300500
TAFNEW
TAF
KNEW 300521Z 3006/3106 26009KT P6SM SCT110 BKN250
     FM300900 35015KT P6SM BKN090
     FM301100 01016KT P6SM SCT090
     FM302000 03009KT P6SM SCT250=



000
FTUS44 KLIX 300500
TAFMSY
TAF
KMSY 300521Z 3006/3106 26006KT P6SM SCT110 BKN250
     FM300900 35010KT P6SM BKN250
     FM301500 03013KT P6SM SCT250
     FM302100 03008KT P6SM SCT250=



000
FTUS44 KLIX 300500
TAFGPT
TAF
KGPT 300521Z 3006/3106 26005KT P6SM SCT110 BKN250
     FM300900 34010KT P6SM BKN090
     FM301100 01013KT P6SM SCT090
     FM302200 02008KT P6SM FEW250=



000
FTUS44 KLIX 300500
TAFNEW
TAF
KNEW 300521Z 3006/3106 26009KT P6SM SCT110 BKN250
     FM300900 35015KT P6SM BKN090
     FM301100 01016KT P6SM SCT090
     FM302000 03009KT P6SM SCT250=



000
FTUS44 KLIX 300500
TAFMCB
TAF
KMCB 300521Z 3006/3106 36008KT P6SM SCT110 BKN250
     FM301400 01009KT P6SM SCT250
     FM310000 02004KT P6SM SCT250=



000
FTUS44 KLIX 300500
TAFBTR
TAF
KBTR 300521Z 3006/3106 36006KT P6SM SCT100 BKN250
     FM300700 36006KT P6SM BKN250
     FM301500 03008KT P6SM SCT250=



000
FTUS44 KLIX 292300
TAFGPT
TAF
KGPT 292322Z 3000/3024 20007KT P6SM SCT250
     FM300300 26006KT P6SM FEW090 SCT250
     FM300600 31007KT P6SM BKN035
     FM300900 34010KT P6SM BKN090
     FM301100 01012KT P6SM SCT090
     FM302200 02008KT P6SM FEW250=



000
FTUS44 KLIX 292300
TAFNEW
TAF
KNEW 292322Z 3000/3024 22006KT P6SM FEW090 SCT250
     FM300400 28006KT P6SM SCT090 BKN250
     FM300800 33010KT P6SM BKN050
     FM301100 01014KT P6SM SCT090
     FM302000 03009KT P6SM SCT250=



000
FTUS44 KLIX 292300
TAFNEW
TAF
KNEW 292322Z 3000/3024 22006KT P6SM FEW090 SCT250
     FM300400 28006KT P6SM SCT090 BKN250
     FM300800 33010KT P6SM BKN050
     FM301100 01014KT P6SM SCT090
     FM302000 03009KT P6SM SCT250=



000
FTUS44 KLIX 292300
TAFMCB
TAF
KMCB 292322Z 3000/3024 24006KT P6SM BKN090
     FM300800 36008KT P6SM SCT090=



000
FTUS44 KLIX 292300
TAFBTR
TAF
KBTR 292322Z 3000/3024 23006KT P6SM SCT250
     FM300300 30006KT P6SM BKN090
     FM300600 36006KT P6SM BKN250=



000
FTUS44 KLIX 292300
TAFMSY
TAF
KMSY 292322Z 3000/3024 23006KT P6SM FEW090 SCT250
     FM300400 29006KT P6SM SCT090 BKN250
     FM300900 35010KT P6SM SCT090 BKN250
     FM301500 03012KT P6SM SCT250
     FM302100 03008KT P6SM SCT250=



000
FTUS44 KLIX 291700 RRA
TAFGPT
TAF
KGPT 291744Z 2918/3018 19008KT P6SM SCT250
     FM300400 26005KT P6SM BKN110
     FM300600 32007KT P6SM BKN035
     FM300900 36011KT P6SM BKN250
     FM301500 02011KT P6SM SCT250=



000
FTUS44 KLIX 291700 RRA
TAFBTR
TAF
KBTR 291744Z 2918/3018 23007KT P6SM SCT025 SCT250
     FM300200 29004KT P6SM BKN100
     FM300500 01007KT P6SM BKN035
     FM300900 02009KT P6SM SCT250
     FM301500 04009KT P6SM SKC=



000
FTUS44 KLIX 291700 RRA
TAFMSY
TAF
KMSY 291744Z 2918/3018 23007KT P6SM SCT250
     FM300500 35010KT P6SM BKN100
     FM300900 02014KT P6SM BKN250
     FM301500 02012KT P6SM SCT250=



000
FTUS44 KLIX 291700 RRA
TAFNEW
TAF
KNEW 291744Z 2918/3018 23008KT P6SM SCT250
     FM300400 33013KT P6SM BKN100
     FM300900 02017G24KT P6SM BKN250=



000
FTUS44 KLIX 291700 RRA
TAFMCB
TAF
KMCB 291744Z 2918/3018 20008KT P6SM SCT020 SCT250
     FM292200 27005KT P6SM BKN090
     FM300100 31006KT P6SM BKN050 BKN100
     FM300600 36009KT P6SM BKN250
     FM301500 02008KT P6SM SCT250=



000
FTUS44 KLIX 291100
TAFBTR
TAF
KBTR 291130Z 2912/3012 VRB03KT P6SM SCT250
     FM300300 29004KT P6SM BKN100
     FM300600 36006KT P6SM BKN035
     FM300900 36009KT P6SM SCT250=



000
FTUS44 KLIX 291100
TAFMCB
TAF
KMCB 291130Z 2912/3012 VRB03KT P6SM SCT250
     FM291600 20007KT P6SM SCT250
     FM300000 24005KT P6SM BKN090
     FM300600 36009KT P6SM BKN250=



000
FTUS44 KLIX 291100
TAFGPT
TAF
KGPT 291130Z 2912/3012 15004KT P6SM SCT250
     FM292000 19008KT P6SM SCT250
     FM300400 26005KT P6SM BKN110
     FM300600 31007KT P6SM BKN030
     FM300700 32009KT P6SM BKN100
     FM300900 36014KT P6SM BKN250=



000
FTUS44 KLIX 291100
TAFMSY
TAF
KMSY 291130Z 2912/3012 VRB04KT P6SM SCT250
     FM291800 21007KT P6SM SCT250
     FM300700 33007KT P6SM BKN100
     FM300900 01012KT P6SM BKN250=



000
FTUS44 KLIX 291100
TAFNEW
TAF
KNEW 291130Z 2912/3012 15005KT P6SM SCT250
     FM292100 21009KT P6SM SCT250
     FM300400 27006KT P6SM BKN110
     FM300700 32010KT P6SM BKN100
     FM300900 01015KT P6SM BKN250=



000
FTUS44 KLIX 291100
TAFNEW
TAF
KNEW 291130Z 2912/3012 15005KT P6SM SCT250
     FM292100 21009KT P6SM SCT250
     FM300400 27006KT P6SM BKN110
     FM300700 32010KT P6SM BKN100
     FM300900 01015KT P6SM BKN250=



000
FTUS44 KLIX 290500
TAFNEW
TAF
KNEW 290522Z 2906/3006 14005KT P6SM FEW250
     FM291800 20007KT P6SM SCT250
     FM300400 27006KT P6SM BKN100=



000
FTUS44 KLIX 290500
TAFMSY
TAF
KMSY 290522Z 2906/3006 14004KT P6SM FEW250
     FM291700 20007KT P6SM SCT250
     FM300400 27005KT P6SM BKN100=



000
FTUS44 KLIX 290500
TAFBTR
TAF
KBTR 290522Z 2906/3006 16004KT P6SM FEW250
     FM291800 22008KT P6SM BKN250
     FM300100 25004KT P6SM BKN100
     FM300500 34005KT P6SM BKN250=



000
FTUS44 KLIX 290500
TAFGPT
TAF
KGPT 290522Z 2906/3006 15004KT P6SM FEW250
      TEMPO 2909/2913 5SM BR
     FM291800 19008KT P6SM SCT250
     FM300300 24005KT P6SM BKN100=



000
FTUS44 KLIX 290500
TAFMCB
TAF
KMCB 290522Z 2906/3006 17004KT P6SM FEW250
      TEMPO 2909/2913 5SM BR
     FM291700 21008KT P6SM SCT250
     FM292100 24008KT P6SM BKN110
     FM300200 30005KT P6SM BKN090=



000
FTUS44 KLIX 290500
TAFNEW
TAF
KNEW 290522Z 2906/3006 14005KT P6SM FEW250
     FM291800 20007KT P6SM SCT250
     FM300400 27006KT P6SM BKN100=



000
FTUS44 KLIX 282300
TAFMCB
TAF
KMCB 282322Z 2900/2924 VRB03KT P6SM FEW250
     FM291600 20007KT P6SM SCT250
     FM292100 24010KT P6SM BKN110=



000
FTUS44 KLIX 282300
TAFBTR
TAF
KBTR 282322Z 2900/2924 15005KT P6SM FEW250
     FM291700 22007KT P6SM SCT250=



000
FTUS44 KLIX 282300
TAFGPT
TAF
KGPT 282322Z 2900/2924 VRB03KT P6SM FEW250
     FM291800 18007KT P6SM SCT250=



000
FTUS44 KLIX 282300
TAFNEW
TAF
KNEW 282322Z 2900/2924 13006KT P6SM FEW250
     FM291700 19007KT P6SM SCT250=



000
FTUS44 KLIX 282300
TAFNEW
TAF
KNEW 282322Z 2900/2924 13006KT P6SM FEW250
     FM291700 19007KT P6SM SCT250=



000
FTUS44 KLIX 282300
TAFMSY
TAF
KMSY 282322Z 2900/2924 13005KT P6SM FEW250
     FM290300 VRB03KT P6SM SCT250
     FM291700 20007KT P6SM SCT250=



000
FTUS44 KLIX 281700
TAFMCB
TAF
KMCB 281730Z 2818/2918 13005KT P6SM SKC
     FM282300 00000KT P6SM SKC
      TEMPO 2910/2913 5SM BR
     FM291400 19005KT P6SM SCT250=



000
FTUS44 KLIX 281700
TAFBTR
TAF
KBTR 281730Z 2818/2918 13006KT P6SM SKC
     FM291400 18005KT P6SM SCT250=



000
FTUS44 KLIX 281700
TAFNEW
TAF
KNEW 281730Z 2818/2918 11012KT P6SM SKC
     FM290100 14005KT P6SM FEW250=



000
FTUS44 KLIX 281700
TAFGPT
TAF
KGPT 281730Z 2818/2918 08007KT P6SM SKC
     FM282000 13008KT P6SM SKC
     FM290100 VRB03KT P6SM FEW250
     FM291500 15005KT P6SM SCT250=



000
FTUS44 KLIX 281700
TAFNEW
TAF
KNEW 281730Z 2818/2918 11012KT P6SM SKC
     FM290100 14005KT P6SM FEW250=



000
FTUS44 KLIX 281700
TAFMSY
TAF
KMSY 281730Z 2818/2918 09007KT P6SM SKC
     FM290600 15004KT P6SM FEW250
     FM291600 19008KT P6SM SCT250=



000
FTUS44 KLIX 281500 AAA
TAFNEW
TAF AMD
KNEW 281509Z 2815/2912 09010KT P6SM SKC
     FM290600 15005KT P6SM FEW250=



000
FTUS44 KLIX 281100
TAFNEW
TAF
KNEW 281120Z 2812/2912 06009KT P6SM SKC
     FM281700 09008KT P6SM SKC
     FM290600 15005KT P6SM FEW250=



000
FTUS44 KLIX 281100
TAFGPT
TAF
KGPT 281120Z 2812/2912 03007KT P6SM SKC
     FM281800 09007KT P6SM SKC
     FM290300 15005KT P6SM FEW250=



000
FTUS44 KLIX 281100
TAFNEW
TAF
KNEW 281120Z 2812/2912 06009KT P6SM SKC
     FM281700 09008KT P6SM SKC
     FM290600 15005KT P6SM FEW250=



000
FTUS44 KLIX 281100
TAFMSY
TAF
KMSY 281120Z 2812/2912 06005KT P6SM SKC
     FM281900 10007KT P6SM SKC=



000
FTUS44 KLIX 281100
TAFBTR
TAF
KBTR 281120Z 2812/2912 VRB03KT P6SM SKC
     FM291000 VRB03KT 2SM BR FEW250=



000
FTUS44 KLIX 281100
TAFMCB
TAF
KMCB 281120Z 2812/2912 00000KT P6SM SKC
     FM291000 VRB03KT 5SM BR FEW250=



000
FTUS44 KLIX 280500
TAFMCB
TAF
KMCB 280539Z 2806/2906 03007KT P6SM SKC
     FM281400 10004KT P6SM SKC
     FM282000 15004KT P6SM SKC=



000
FTUS44 KLIX 280500
TAFNEW
TAF
KNEW 280539Z 2806/2906 03010KT P6SM SKC
     FM281200 07009KT P6SM SKC
     FM290100 13006KT P6SM SKC=



000
FTUS44 KLIX 280500
TAFNEW
TAF
KNEW 280539Z 2806/2906 03010KT P6SM SKC
     FM281200 07009KT P6SM SKC
     FM290100 13006KT P6SM SKC=



000
FTUS44 KLIX 280500
TAFMSY
TAF
KMSY 280539Z 2806/2906 03006KT P6SM SKC
     FM281700 09007KT P6SM SKC=



000
FTUS44 KLIX 280500
TAFBTR
TAF
KBTR 280539Z 2806/2906 05005KT P6SM SKC
     FM281400 09004KT P6SM SKC
     FM282100 14006KT P6SM SKC=



000
FTUS44 KLIX 280500
TAFGPT
TAF
KGPT 280539Z 2806/2906 02006KT P6SM SKC
     FM281700 08006KT P6SM SKC
     FM282200 14005KT P6SM SKC=



000
FTUS44 KLIX 272300
TAFMSY
TAF
KMSY 272322Z 2800/2824 33005KT P6SM SKC
     FM280700 03005KT P6SM SKC
     FM281700 09007KT P6SM SKC=



000
FTUS44 KLIX 272300
TAFGPT
TAF
KGPT 272322Z 2800/2824 32004KT P6SM SKC
     FM280700 02006KT P6SM FEW250
     FM281500 08006KT P6SM SKC
     FM282000 14005KT P6SM SKC=



000
FTUS44 KLIX 272300
TAFNEW
TAF
KNEW 272322Z 2800/2824 32005KT P6SM SKC
     FM280600 02007KT P6SM SKC
     FM281700 09007KT P6SM SKC=



000
FTUS44 KLIX 272300
TAFMCB
TAF
KMCB 272322Z 2800/2824 VRB04KT P6SM SKC
     FM280900 00000KT 5SM BR SKC
     FM281500 13004KT P6SM SKC=



000
FTUS44 KLIX 272300
TAFBTR
TAF
KBTR 272322Z 2800/2824 VRB04KT P6SM SKC
     FM282100 14006KT P6SM SKC=



000
FTUS44 KLIX 272300
TAFNEW
TAF
KNEW 272322Z 2800/2824 32005KT P6SM SKC
     FM280600 02007KT P6SM SKC
     FM281700 09007KT P6SM SKC=



000
FTUS44 KLIX 271700
TAFMSY
TAF
KMSY 271726Z 2718/2818 32006KT P6SM SKC
     FM280500 02006KT P6SM SKC
     FM281500 08007KT P6SM SKC=



000
FTUS44 KLIX 271700
TAFNEW
TAF
KNEW 271726Z 2718/2818 30007KT P6SM SKC
     FM280200 02007KT P6SM SKC
     FM281000 06008KT P6SM SKC=



000
FTUS44 KLIX 271700
TAFMCB
TAF
KMCB 271726Z 2718/2818 33005KT P6SM SKC
     FM281000 00000KT 5SM BR FEW250
     FM281300 VRB03KT P6SM SKC=



000
FTUS44 KLIX 271700
TAFBTR
TAF
KBTR 271726Z 2718/2818 VRB04KT P6SM SKC=



000
FTUS44 KLIX 271700
TAFNEW
TAF
KNEW 271726Z 2718/2818 30007KT P6SM SKC
     FM280200 02007KT P6SM SKC
     FM281000 06008KT P6SM SKC=



000
FTUS44 KLIX 271700
TAFGPT
TAF
KGPT 271726Z 2718/2818 32008KT P6SM SKC
     FM280100 VRB03KT P6SM FEW250
     FM281600 06007KT P6SM SKC=



    US Dept of Commerce
    National Oceanic and Atmospheric Administration
    National Weather Service
    1325 East West Highway
    Silver Spring, MD 20910
    Page Author: NWS Internet Services Team
Disclaimer
Information Quality
Credits
Glossary
Privacy Policy
Freedom of Information Act (FOIA)
About Us
Career Opportunities